Terminal Aerodrome Forecast
Issued by NWS King Salmon, AK

Home | Current Version | Previous Version | Text Only | Print | Product List | Glossary On
Versions: 1 2 3 4 5 6 7 8 9 10 11 12 13 14 15 16 17 18 19 20 21 22 23 24
675
FTAK31 PANC 212345
TAFAKN
TAF
PAKN 212345Z 2200/2224 04010G18KT P6SM BKN060 OVC100
     FM220400 VRB06KT P6SM SCT050 BKN080=

USA.gov is the U.S. government's official web portal to all federal, state and local government web resources and services.